Fire Dart — FIRE — position and weather

sailwx.info

Track history (hours):
 
Tides and Currents Weather Stations Pressure Air Temp Water Temp Dewpoint Dewpoint Depression Visibility Wind Speed Wind Dir Waves Ship Positions

Fire Dart

Last reported at 2018-May-25 04:51 UTC. Time now 2018-May-25 11:06 UTC.
Position N 29°41' W 094°59'.

Length 14 m.

Type: High speed craft. MMSI: 235094361.

Date/timePositionNaut miles runAvg speedWind from/ knotsBaromVisibWave heightAir tempDewpointWater temp
2018-May-25 04:51N 29°41' W 094°59'82075.3
2018-May-24 17:57N 25°47' W 080°11'3 6.2
2018-May-24 17:29N 25°44' W 080°13'0 0.0
2018-May-24 16:18N 25°44' W 080°13'3 0.2
2018-May-23 21:46N 25°47' W 080°11'0 0.0
2018-May-23 21:30N 25°47' W 080°11'1 2.0
2018-May-23 21:00N 25°46' W 080°12'82053648.3
2018-May-23 20:59N 29°41' W 094°59'0 0.0
2018-May-23 20:17N 29°41' W 094°59'8181577.5
2018-May-23 19:46N 25°47' W 080°13'2 5.7
2018-May-23 19:27N 25°46' W 080°12'1 0.6
2018-May-23 18:12N 25°47' W 080°11'0 0.0
2018-May-23 17:54N 25°47' W 080°11'0 0.0
2018-May-23 17:20N 25°47' W 080°11'0 0.0
2018-May-23 16:40N 25°47' W 080°11'210.3
2018-May-23 16:30N 25°45' W 080°11'2 2.8
2018-May-23 15:50N 25°44' W 080°13'3 8.4
2018-May-23 15:30N 25°47' W 080°11'8202774.1
2018-May-23 15:12N 29°41' W 094°59'210.9
2018-May-23 15:00N 29°39' W 094°60'2 4.6
2018-May-23 14:30N 29°41' W 094°59'0 0.5
2018-May-23 13:56N 29°41' W 094°59'820488.5
2018-May-23 12:15N 25°47' W 080°11'0 0.8
2018-May-23 11:58N 25°47' W 080°11'82042.6
2018-May-22 16:42N 29°41' W 094°59'1 5.8
2018-May-22 16:29N 29°40' W 094°59'82014189.0
2018-May-22 16:25N 25°47' W 080°11'8211962.8
2018-May-22 16:00N 29°37' W 095°01'82035140.7
2018-May-22 15:59N 25°44' W 080°13'0 0.0
2018-May-22 15:29N 25°44' W 080°13'0 0.0
2018-May-22 15:00N 25°44' W 080°13'820691.9
2018-May-22 13:49N 29°42' W 094°60'1 1.5
2018-May-22 13:08N 29°41' W 094°59'0 0.0
2018-May-22 12:56N 29°41' W 094°59'0 0.0
2018-May-22 12:29N 29°41' W 094°59'0 0.0
2018-May-22 11:59N 29°41' W 094°59'8202536.4
2018-May-22 11:39N 25°47' W 080°11'0 0.0
2018-May-22 11:27N 25°47' W 080°11'0 0.0
2018-May-22 10:53N 25°47' W 080°11'0 0.0
2018-May-22 10:29N 25°47' W 080°11'820250.4
2018-May-22 07:13N 29°41' W 094°59'0 0.0
2018-May-22 06:56N 29°41' W 094°59'0 0.0
2018-May-22 06:23N 29°41' W 094°59'0 0.0
2018-May-22 05:56N 29°41' W 094°59'0 0.0
2018-May-22 05:20N 29°41' W 094°59'0 0.0
2018-May-22 04:56N 29°41' W 094°59'0 0.0
2018-May-22 04:26N 29°41' W 094°59'0 0.0
2018-May-22 03:56N 29°41' W 094°59'0 0.0
2018-May-22 03:29N 29°41' W 094°59'0 0.0
2018-May-22 02:56N 29°41' W 094°59'0 0.0
2018-May-22 02:29N 29°41' W 094°59'2 3.8
2018-May-22 02:00N 29°39' W 094°59'2 3.1
2018-May-22 01:25N 29°41' W 094°59'0 0.0
2018-May-22 00:58N 29°41' W 094°59'0 0.0
2018-May-22 00:28N 29°41' W 094°59'8202185.3
2018-May-22 00:06N 25°47' W 080°11'8204664.2
2018-May-21 23:55N 29°41' W 094°59'82033173.3
2018-May-21 23:53N 25°47' W 080°11'8201730.6
2018-May-21 23:25N 29°41' W 094°59'0 0.0
2018-May-21 22:55N 29°41' W 094°59'820319.9
2018-May-21 20:21N 25°47' W 080°11'820208.4
2018-May-21 16:25N 29°41' W 094°59'0 0.0
2018-May-21 15:52N 29°41' W 094°59'820522.0
2018-May-21 14:18N 25°47' W 080°11'1 2.8
2018-May-21 14:00N 25°47' W 080°10'1 0.7
2018-May-21 12:48N 25°47' W 080°11'0 0.0
2018-May-21 12:30N 25°47' W 080°11'0 0.0
2018-May-21 12:00N 25°47' W 080°11'0 0.0
2018-May-20 12:02N 25°47' W 080°11'0 0.0
2018-May-20 11:59N 25°47' W 080°11'0 0.0
2018-May-19 18:44N 25°47' W 080°11'312.2
2018-May-19 18:30N 25°44' W 080°12'1 1.0
2018-May-19 17:58N 25°44' W 080°13'0 0.7
2018-May-19 17:30N 25°44' W 080°12'3 1.1
2018-May-19 15:09N 25°47' W 080°11'318.5
2018-May-19 15:00N 25°44' W 080°11'2 3.4
2018-May-19 14:29N 25°42' W 080°11'5 2.0
2018-May-19 12:16N 25°47' W 080°11'0 0.0
2018-May-19 11:58N 25°47' W 080°11'0 0.0
2018-May-19 11:28N 25°47' W 080°11'0 0.0
2018-May-19 10:58N 25°47' W 080°11'0 0.0
2018-May-19 10:28N 25°47' W 080°11'0 0.0
2018-May-18 18:17N 25°47' W 080°11'0 0.8
2018-May-18 18:00N 25°47' W 080°11'0 0.4
2018-May-18 17:24N 25°47' W 080°11'0 0.0
2018-May-18 17:00N 25°47' W 080°11'0 0.0
2018-May-18 16:30N 25°47' W 080°11'0 0.0
2018-May-18 16:00N 25°47' W 080°11'0 0.0
2018-May-18 15:27N 25°47' W 080°11'0 0.0
2018-May-18 15:00N 25°47' W 080°11'0 0.0
2018-May-18 14:27N 25°47' W 080°11'0 0.0
2018-May-18 14:00N 25°47' W 080°11'0 0.0
2018-May-18 12:21N 25°47' W 080°11'0 0.0
2018-May-18 11:57N 25°47' W 080°11'820591.1
2018-May-18 10:34N 29°41' W 094°59'0 0.0
2018-May-18 10:22N 29°41' W 094°59'0 0.0
2018-May-18 09:58N 29°41' W 094°59'0 0.0
2018-May-18 09:22N 29°41' W 094°59'0 0.0
2018-May-18 08:58N 29°41' W 094°59'0 0.0
2018-May-18 07:52N 29°41' W 094°59'0 0.0
2018-May-18 07:25N 29°41' W 094°59'0 0.0
2018-May-18 06:58N 29°41' W 094°59'0 0.0
2018-May-18 06:28N 29°41' W 094°59'0 0.0
2018-May-18 05:55N 29°41' W 094°59'0 0.0
2018-May-18 05:22N 29°41' W 094°59'0 0.0
2018-May-18 04:52N 29°41' W 094°59'0 0.0
2018-May-18 04:16N 29°41' W 094°59'0 0.0
2018-May-18 03:55N 29°41' W 094°59'0 0.0
2018-May-18 03:19N 29°41' W 094°59'0 0.0
2018-May-18 02:52N 29°41' W 094°59'0 0.0
2018-May-18 02:22N 29°41' W 094°59'0 0.0
2018-May-18 01:52N 29°41' W 094°59'820929.9
2018-May-18 00:59N 25°47' W 080°11'4 2.6
2018-May-17 23:26N 25°44' W 080°14'819182.9
2018-May-17 18:57N 29°41' W 094°59'8203886.2
2018-May-17 18:44N 25°47' W 080°11'310.9
2018-May-17 18:30N 25°44' W 080°12'3 1.4
2018-May-17 16:37N 25°47' W 080°11'212.8
2018-May-17 16:29N 25°45' W 080°11'8211034.4
2018-May-17 15:42N 29°41' W 094°59'1 0.4
2018-May-17 13:43N 29°42' W 094°60'1 2.7
2018-May-17 13:24N 29°41' W 094°59'0 0.0
2018-May-17 13:00N 29°41' W 094°59'820745.0
2018-May-17 11:54N 25°47' W 080°11'820334.9
2018-May-17 09:27N 29°41' W 094°59'0 0.0
2018-May-17 08:54N 29°41' W 094°59'0 0.0
2018-May-17 06:00N 29°41' W 094°59'0 0.0
2018-May-17 04:48N 29°41' W 094°59'0 0.0
2018-May-17 04:24N 29°41' W 094°59'0 0.0
2018-May-17 01:42N 29°41' W 094°59'0 0.0
2018-May-17 01:27N 29°41' W 094°59'0 0.0
2018-May-16 16:05N 29°41' W 094°59'119.3
2018-May-16 16:00N 29°40' W 094°58'4 7.0
2018-May-16 15:30N 29°37' W 095°01'821717.8
2018-May-16 14:22N 25°47' W 080°11'8203351.2
2018-May-16 14:07N 29°41' W 094°59'0 0.0
2018-May-16 13:19N 29°41' W 094°59'0 0.0
2018-May-16 12:52N 29°41' W 094°59'0 0.0
2018-May-16 12:28N 29°41' W 094°59'0 0.0
2018-May-16 11:55N 29°41' W 094°59'0 0.0
2018-May-16 11:28N 29°41' W 094°59'0 0.0
2018-May-16 10:49N 29°41' W 094°59'8203332.3
2018-May-16 10:34N 25°47' W 080°11'0 0.0
2018-May-16 10:28N 25°47' W 080°11'8207958.0
2018-May-16 10:22N 29°41' W 094°59'0 0.0
2018-May-16 09:58N 29°41' W 094°59'0 0.0
2018-May-16 09:28N 29°41' W 094°59'0 0.0
2018-May-16 08:58N 29°41' W 094°59'0 0.0
2018-May-16 08:16N 29°41' W 094°59'0 0.0
2018-May-16 07:58N 29°41' W 094°59'0 0.0
2018-May-16 06:58N 29°41' W 094°59'0 0.0
2018-May-16 06:16N 29°41' W 094°59'0 0.0
2018-May-16 05:58N 29°41' W 094°59'0 0.0
2018-May-16 05:25N 29°41' W 094°59'0 0.0
2018-May-16 04:49N 29°41' W 094°59'0 0.0
2018-May-16 04:10N 29°41' W 094°59'0 0.0
2018-May-16 03:55N 29°41' W 094°59'0 0.0
2018-May-16 03:22N 29°41' W 094°59'0 0.0
2018-May-15 14:22N 29°41' W 094°59'0 0.0
2018-May-15 13:58N 29°41' W 094°59'0 0.0
2018-May-15 13:19N 29°41' W 094°59'0 0.0
2018-May-15 12:49N 29°41' W 094°59'8201191.9
2018-May-15 12:08N 25°47' W 080°11'0 0.0
2018-May-15 11:53N 25°47' W 080°11'8201777.5
2018-May-15 11:25N 29°41' W 094°59'82021550.6
2018-May-15 11:23N 25°47' W 080°11'8201772.2
2018-May-15 10:55N 29°41' W 094°59'0 0.0
2018-May-15 10:25N 29°41' W 094°59'0 0.0
2018-May-15 09:58N 29°41' W 094°59'0 0.0
2018-May-15 06:43N 29°41' W 094°59'0 0.0
2018-May-15 06:28N 29°41' W 094°59'0 0.0
2018-May-15 05:58N 29°41' W 094°59'  
Track history (hours):
 
Tides and Currents Weather Stations Pressure Air Temp Water Temp Dewpoint Dewpoint Depression Visibility Wind Speed Wind Dir Waves Ship Positions

Fire Dart

Last reported at 2018-May-25 04:51 UTC. Time now 2018-May-25 11:06 UTC.
Position N 29°41' W 094°59'.

Length 14 m.

Type: High speed craft. MMSI: 235094361.

Date/timePositionNaut miles runAvg speedWind from/ knotsBaromVisibWave heightAir tempDewpointWater temp
2018-May-25 04:51N 29°41' W 094°59'82075.3
2018-May-24 17:57N 25°47' W 080°11'3 6.2
2018-May-24 17:29N 25°44' W 080°13'0 0.0
2018-May-24 16:18N 25°44' W 080°13'3 0.2
2018-May-23 21:46N 25°47' W 080°11'0 0.0
2018-May-23 21:30N 25°47' W 080°11'1 2.0
2018-May-23 21:00N 25°46' W 080°12'82053648.3
2018-May-23 20:59N 29°41' W 094°59'0 0.0
2018-May-23 20:17N 29°41' W 094°59'8181577.5
2018-May-23 19:46N 25°47' W 080°13'2 5.7
2018-May-23 19:27N 25°46' W 080°12'1 0.6
2018-May-23 18:12N 25°47' W 080°11'0 0.0
2018-May-23 17:54N 25°47' W 080°11'0 0.0
2018-May-23 17:20N 25°47' W 080°11'0 0.0
2018-May-23 16:40N 25°47' W 080°11'210.3
2018-May-23 16:30N 25°45' W 080°11'2 2.8
2018-May-23 15:50N 25°44' W 080°13'3 8.4
2018-May-23 15:30N 25°47' W 080°11'8202774.1
2018-May-23 15:12N 29°41' W 094°59'210.9
2018-May-23 15:00N 29°39' W 094°60'2 4.6
2018-May-23 14:30N 29°41' W 094°59'0 0.5
2018-May-23 13:56N 29°41' W 094°59'820488.5
2018-May-23 12:15N 25°47' W 080°11'0 0.8
2018-May-23 11:58N 25°47' W 080°11'82042.6
2018-May-22 16:42N 29°41' W 094°59'1 5.8
2018-May-22 16:29N 29°40' W 094°59'82014189.0
2018-May-22 16:25N 25°47' W 080°11'8211962.8
2018-May-22 16:00N 29°37' W 095°01'82035140.7
2018-May-22 15:59N 25°44' W 080°13'0 0.0
2018-May-22 15:29N 25°44' W 080°13'0 0.0
2018-May-22 15:00N 25°44' W 080°13'820691.9
2018-May-22 13:49N 29°42' W 094°60'1 1.5
2018-May-22 13:08N 29°41' W 094°59'0 0.0
2018-May-22 12:56N 29°41' W 094°59'0 0.0
2018-May-22 12:29N 29°41' W 094°59'0 0.0
2018-May-22 11:59N 29°41' W 094°59'8202536.4
2018-May-22 11:39N 25°47' W 080°11'0 0.0
2018-May-22 11:27N 25°47' W 080°11'0 0.0
2018-May-22 10:53N 25°47' W 080°11'0 0.0
2018-May-22 10:29N 25°47' W 080°11'820250.4
2018-May-22 07:13N 29°41' W 094°59'0 0.0
2018-May-22 06:56N 29°41' W 094°59'0 0.0
2018-May-22 06:23N 29°41' W 094°59'0 0.0
2018-May-22 05:56N 29°41' W 094°59'0 0.0
2018-May-22 05:20N 29°41' W 094°59'0 0.0
2018-May-22 04:56N 29°41' W 094°59'0 0.0
2018-May-22 04:26N 29°41' W 094°59'0 0.0
2018-May-22 03:56N 29°41' W 094°59'0 0.0
2018-May-22 03:29N 29°41' W 094°59'0 0.0
2018-May-22 02:56N 29°41' W 094°59'0 0.0
2018-May-22 02:29N 29°41' W 094°59'2 3.8
2018-May-22 02:00N 29°39' W 094°59'2 3.1
2018-May-22 01:25N 29°41' W 094°59'0 0.0
2018-May-22 00:58N 29°41' W 094°59'0 0.0
2018-May-22 00:28N 29°41' W 094°59'8202185.3
2018-May-22 00:06N 25°47' W 080°11'8204664.2
2018-May-21 23:55N 29°41' W 094°59'82033173.3
2018-May-21 23:53N 25°47' W 080°11'8201730.6
2018-May-21 23:25N 29°41' W 094°59'0 0.0
2018-May-21 22:55N 29°41' W 094°59'820319.9
2018-May-21 20:21N 25°47' W 080°11'820208.4
2018-May-21 16:25N 29°41' W 094°59'0 0.0
2018-May-21 15:52N 29°41' W 094°59'820522.0
2018-May-21 14:18N 25°47' W 080°11'1 2.8
2018-May-21 14:00N 25°47' W 080°10'1 0.7
2018-May-21 12:48N 25°47' W 080°11'0 0.0
2018-May-21 12:30N 25°47' W 080°11'0 0.0
2018-May-21 12:00N 25°47' W 080°11'0 0.0
2018-May-20 12:02N 25°47' W 080°11'0 0.0
2018-May-20 11:59N 25°47' W 080°11'0 0.0
2018-May-19 18:44N 25°47' W 080°11'312.2
2018-May-19 18:30N 25°44' W 080°12'1 1.0
2018-May-19 17:58N 25°44' W 080°13'0 0.7
2018-May-19 17:30N 25°44' W 080°12'3 1.1
2018-May-19 15:09N 25°47' W 080°11'318.5
2018-May-19 15:00N 25°44' W 080°11'2 3.4
2018-May-19 14:29N 25°42' W 080°11'5 2.0
2018-May-19 12:16N 25°47' W 080°11'0 0.0
2018-May-19 11:58N 25°47' W 080°11'0 0.0
2018-May-19 11:28N 25°47' W 080°11'0 0.0
2018-May-19 10:58N 25°47' W 080°11'0 0.0
2018-May-19 10:28N 25°47' W 080°11'0 0.0
2018-May-18 18:17N 25°47' W 080°11'0 0.8
2018-May-18 18:00N 25°47' W 080°11'0 0.4
2018-May-18 17:24N 25°47' W 080°11'0 0.0
2018-May-18 17:00N 25°47' W 080°11'0 0.0
2018-May-18 16:30N 25°47' W 080°11'0 0.0
2018-May-18 16:00N 25°47' W 080°11'0 0.0
2018-May-18 15:27N 25°47' W 080°11'0 0.0
2018-May-18 15:00N 25°47' W 080°11'0 0.0
2018-May-18 14:27N 25°47' W 080°11'0 0.0
2018-May-18 14:00N 25°47' W 080°11'0 0.0
2018-May-18 12:21N 25°47' W 080°11'0 0.0
2018-May-18 11:57N 25°47' W 080°11'820591.1
2018-May-18 10:34N 29°41' W 094°59'0 0.0
2018-May-18 10:22N 29°41' W 094°59'0 0.0
2018-May-18 09:58N 29°41' W 094°59'0 0.0
2018-May-18 09:22N 29°41' W 094°59'0 0.0
2018-May-18 08:58N 29°41' W 094°59'0 0.0
2018-May-18 07:52N 29°41' W 094°59'0 0.0
2018-May-18 07:25N 29°41' W 094°59'0 0.0
2018-May-18 06:58N 29°41' W 094°59'0 0.0
2018-May-18 06:28N 29°41' W 094°59'0 0.0
2018-May-18 05:55N 29°41' W 094°59'0 0.0
2018-May-18 05:22N 29°41' W 094°59'0 0.0
2018-May-18 04:52N 29°41' W 094°59'0 0.0
2018-May-18 04:16N 29°41' W 094°59'0 0.0
2018-May-18 03:55N 29°41' W 094°59'0 0.0
2018-May-18 03:19N 29°41' W 094°59'0 0.0
2018-May-18 02:52N 29°41' W 094°59'0 0.0
2018-May-18 02:22N 29°41' W 094°59'0 0.0
2018-May-18 01:52N 29°41' W 094°59'820929.9
2018-May-18 00:59N 25°47' W 080°11'4 2.6
2018-May-17 23:26N 25°44' W 080°14'819182.9
2018-May-17 18:57N 29°41' W 094°59'8203886.2
2018-May-17 18:44N 25°47' W 080°11'310.9
2018-May-17 18:30N 25°44' W 080°12'3 1.4
2018-May-17 16:37N 25°47' W 080°11'212.8
2018-May-17 16:29N 25°45' W 080°11'8211034.4
2018-May-17 15:42N 29°41' W 094°59'1 0.4
2018-May-17 13:43N 29°42' W 094°60'1 2.7
2018-May-17 13:24N 29°41' W 094°59'0 0.0
2018-May-17 13:00N 29°41' W 094°59'820745.0
2018-May-17 11:54N 25°47' W 080°11'820334.9
2018-May-17 09:27N 29°41' W 094°59'0 0.0
2018-May-17 08:54N 29°41' W 094°59'0 0.0
2018-May-17 06:00N 29°41' W 094°59'0 0.0
2018-May-17 04:48N 29°41' W 094°59'0 0.0
2018-May-17 04:24N 29°41' W 094°59'0 0.0
2018-May-17 01:42N 29°41' W 094°59'0 0.0
2018-May-17 01:27N 29°41' W 094°59'0 0.0
2018-May-16 16:05N 29°41' W 094°59'119.3
2018-May-16 16:00N 29°40' W 094°58'4 7.0
2018-May-16 15:30N 29°37' W 095°01'821717.8
2018-May-16 14:22N 25°47' W 080°11'8203351.2
2018-May-16 14:07N 29°41' W 094°59'0 0.0
2018-May-16 13:19N 29°41' W 094°59'0 0.0
2018-May-16 12:52N 29°41' W 094°59'0 0.0
2018-May-16 12:28N 29°41' W 094°59'0 0.0
2018-May-16 11:55N 29°41' W 094°59'0 0.0
2018-May-16 11:28N 29°41' W 094°59'0 0.0
2018-May-16 10:49N 29°41' W 094°59'8203332.3
2018-May-16 10:34N 25°47' W 080°11'0 0.0
2018-May-16 10:28N 25°47' W 080°11'8207958.0
2018-May-16 10:22N 29°41' W 094°59'0 0.0
2018-May-16 09:58N 29°41' W 094°59'0 0.0
2018-May-16 09:28N 29°41' W 094°59'0 0.0
2018-May-16 08:58N 29°41' W 094°59'0 0.0
2018-May-16 08:16N 29°41' W 094°59'0 0.0
2018-May-16 07:58N 29°41' W 094°59'0 0.0
2018-May-16 06:58N 29°41' W 094°59'0 0.0
2018-May-16 06:16N 29°41' W 094°59'0 0.0
2018-May-16 05:58N 29°41' W 094°59'0 0.0
2018-May-16 05:25N 29°41' W 094°59'0 0.0
2018-May-16 04:49N 29°41' W 094°59'0 0.0
2018-May-16 04:10N 29°41' W 094°59'0 0.0
2018-May-16 03:55N 29°41' W 094°59'0 0.0
2018-May-16 03:22N 29°41' W 094°59'0 0.0
2018-May-15 14:22N 29°41' W 094°59'0 0.0
2018-May-15 13:58N 29°41' W 094°59'0 0.0
2018-May-15 13:19N 29°41' W 094°59'0 0.0
2018-May-15 12:49N 29°41' W 094°59'8201191.9
2018-May-15 12:08N 25°47' W 080°11'0 0.0
2018-May-15 11:53N 25°47' W 080°11'8201777.5
2018-May-15 11:25N 29°41' W 094°59'82021550.6
2018-May-15 11:23N 25°47' W 080°11'8201772.2
2018-May-15 10:55N 29°41' W 094°59'0 0.0
2018-May-15 10:25N 29°41' W 094°59'0 0.0
2018-May-15 09:58N 29°41' W 094°59'0 0.0
2018-May-15 06:43N 29°41' W 094°59'0 0.0
2018-May-15 06:28N 29°41' W 094°59'0 0.0
2018-May-15 05:58N 29°41' W 094°59'  

Dump ship's entire track history